Time;durP1;ratioP1;P1;durP2;ratioP2;P2;SDS_P1;SDS_P2;PMS_P1;PMS_P2;Temp;Humidity;BMP_temperature;BMP_pressure;BME280_temperature;BME280_humidity;BME280_pressure;Samples;Min_cycle;Max_cycle;Signal;HPM_P1;HPM_P2
2024/01/19 00:02:11;;;;;;;3.80;3.50;;;20.20;38.50;;;;;;222196;1262;24218;-50
2024/01/19 00:07:16;;;;;;;4.10;3.70;;;20.60;37.80;;;;;;222081;1259;22765;-47
2024/01/19 00:12:26;;;;;;;4.10;3.70;;;20.80;37.60;;;;;;222438;1268;24214;-45
2024/01/19 00:17:31;;;;;;;4.10;3.70;;;20.80;37.60;;;;;;222492;1256;25281;-47
2024/01/19 00:22:36;;;;;;;3.20;2.90;;;20.70;37.80;;;;;;222600;1266;22530;-48
2024/01/19 00:27:41;;;;;;;3.00;2.80;;;20.60;38.40;;;;;;222561;1266;22514;-47
2024/01/19 00:32:48;;;;;;;3.50;3.20;;;20.30;38.30;;;;;;222428;1266;23349;-48
2024/01/19 00:37:52;;;;;;;3.40;3.10;;;20.20;38.60;;;;;;221984;1263;22746;-45
2024/01/19 00:42:57;;;;;;;3.10;2.80;;;20.00;39.40;;;;;;222131;1261;22522;-45
2024/01/19 00:48:01;;;;;;;3.20;2.90;;;19.90;39.10;;;;;;222225;1253;25472;-46
2024/01/19 00:53:06;;;;;;;3.90;3.60;;;19.70;39.40;;;;;;222485;1267;25480;-47
2024/01/19 00:58:11;;;;;;;3.20;3.00;;;19.70;39.70;;;;;;222227;1264;22771;-47
2024/01/19 01:03:26;;;;;;;3.50;3.20;;;19.70;39.50;;;;;;222874;1268;23230;-46
2024/01/19 01:08:33;;;;;;;3.50;3.20;;;19.60;39.80;;;;;;222712;1257;25322;-46
2024/01/19 01:13:38;;;;;;;3.70;3.40;;;19.60;39.50;;;;;;223284;1265;24311;-47
2024/01/19 01:18:45;;;;;;;4.40;3.30;;;19.50;39.50;;;;;;223898;1267;24336;-46
2024/01/19 01:23:50;;;;;;;3.60;3.30;;;19.60;39.50;;;;;;222845;1266;23527;-48
2024/01/19 01:28:56;;;;;;;3.30;3.10;;;19.40;39.50;;;;;;222545;1262;23678;-46
2024/01/19 01:34:03;;;;;;;3.30;3.00;;;19.40;39.70;;;;;;222592;1266;22513;-46
2024/01/19 01:39:11;;;;;;;3.10;2.90;;;19.20;40.30;;;;;;222641;1266;24345;-48
2024/01/19 01:44:20;;;;;;;3.10;2.80;;;19.30;40.00;;;;;;222933;1256;22609;-46
2024/01/19 01:49:25;;;;;;;3.40;2.90;;;19.90;39.00;;;;;;222464;1264;22495;-46
2024/01/19 01:54:30;;;;;;;5.10;2.90;;;20.50;38.00;;;;;;222418;1267;24219;-47
2024/01/19 01:59:34;;;;;;;3.40;3.10;;;20.80;37.60;;;;;;222727;1256;22549;-47
2024/01/19 02:04:48;;;;;;;3.20;3.00;;;20.90;37.90;;;;;;222858;1266;22609;-47
2024/01/19 02:09:52;;;;;;;2.90;2.70;;;20.70;37.60;;;;;;222496;1266;22521;-47
2024/01/19 02:14:57;;;;;;;3.20;2.90;;;20.70;38.00;;;;;;222730;1262;22639;-47
2024/01/19 02:20:04;;;;;;;2.90;2.70;;;20.50;38.00;;;;;;223116;1266;23132;-46
2024/01/19 02:25:10;;;;;;;3.20;2.90;;;20.30;38.50;;;;;;223097;1266;22537;-45
2024/01/19 02:30:17;;;;;;;3.30;2.80;;;20.20;39.10;;;;;;222673;1262;22558;-47
2024/01/19 02:35:31;;;;;;;3.40;2.80;;;20.00;39.40;;;;;;222399;1265;22524;-46
2024/01/19 02:40:41;;;;;;;3.00;2.80;;;19.80;39.30;;;;;;222604;1260;25325;-46
2024/01/19 02:45:45;;;;;;;2.50;2.30;;;19.80;39.40;;;;;;222453;1267;25492;-49
2024/01/19 02:50:52;;;;;;;3.10;2.90;;;19.70;39.40;;;;;;222356;1265;22685;-47
2024/01/19 02:55:59;;;;;;;2.90;2.70;;;19.70;39.40;;;;;;222309;1268;24233;-49
2024/01/19 03:01:04;;;;;;;2.60;2.40;;;19.60;39.50;;;;;;222540;1266;26507;-45
2024/01/19 03:06:11;;;;;;;2.70;2.30;;;19.50;39.50;;;;;;222569;1268;24194;-45
2024/01/19 03:11:16;;;;;;;2.70;2.50;;;19.50;39.50;;;;;;222543;1262;22519;-46
2024/01/19 03:16:21;;;;;;;2.90;2.70;;;19.40;39.60;;;;;;222105;1268;25275;-46
2024/01/19 03:21:25;;;;;;;2.50;2.30;;;19.40;39.80;;;;;;222140;1261;22567;-45
2024/01/19 03:26:30;;;;;;;2.60;2.40;;;19.30;39.60;;;;;;222555;1267;23478;-46
2024/01/19 03:31:34;;;;;;;3.30;2.50;;;19.30;39.70;;;;;;222468;1267;23450;-45
2024/01/19 03:36:39;;;;;;;2.10;2.00;;;19.30;39.80;;;;;;222678;1260;24185;-45
2024/01/19 03:41:43;;;;;;;2.60;2.40;;;20.00;38.80;;;;;;222492;1261;24284;-47
2024/01/19 03:46:48;;;;;;;2.50;2.30;;;20.50;37.90;;;;;;222890;1264;24227;-46
2024/01/19 03:52:03;;;;;;;2.50;2.30;;;20.80;37.50;;;;;;222815;1264;22532;-45
2024/01/19 03:57:10;;;;;;;2.70;2.50;;;20.80;37.80;;;;;;222399;1257;24340;-49
2024/01/19 04:02:15;;;;;;;2.50;2.30;;;20.80;37.50;;;;;;222553;1263;22745;-45
2024/01/19 04:07:25;;;;;;;2.80;2.40;;;20.70;37.70;;;;;;222645;1266;24271;-47
2024/01/19 04:12:32;;;;;;;2.40;2.20;;;20.50;38.00;;;;;;222332;1261;24247;-45
2024/01/19 04:17:40;;;;;;;3.10;2.40;;;20.30;38.30;;;;;;222508;1267;22524;-48
2024/01/19 04:22:48;;;;;;;3.60;2.50;;;20.20;38.90;;;;;;222386;1266;24231;-47
2024/01/19 04:27:53;;;;;;;2.50;2.30;;;19.90;38.90;;;;;;222281;1266;22528;-46
2024/01/19 04:32:57;;;;;;;2.50;2.30;;;19.80;39.10;;;;;;222789;1244;22639;-49
2024/01/19 04:38:02;;;;;;;2.20;2.10;;;19.70;39.20;;;;;;222574;1266;22525;-46
2024/01/19 04:43:07;;;;;;;2.10;1.90;;;19.70;39.30;;;;;;222411;1267;22520;-49
2024/01/19 04:48:11;;;;;;;2.00;1.90;;;19.70;39.60;;;;;;222403;1267;23268;-46
2024/01/19 04:53:27;;;;;;;2.40;2.20;;;19.70;39.20;;;;;;222205;1267;22658;-46
2024/01/19 04:58:36;;;;;;;2.20;2.10;;;19.60;39.30;;;;;;222822;1267;26567;-47
2024/01/19 05:03:45;;;;;;;2.50;2.30;;;19.60;39.30;;;;;;222624;1267;25405;-45
2024/01/19 05:08:53;;;;;;;2.00;1.80;;;19.50;39.20;;;;;;222677;1260;25278;-47
2024/01/19 05:13:57;;;;;;;2.40;2.20;;;19.50;39.20;;;;;;222288;1267;22608;-44
2024/01/19 05:19:04;;;;;;;1.90;1.80;;;19.40;39.40;;;;;;222553;1260;25501;-46
2024/01/19 05:24:09;;;;;;;2.10;2.00;;;19.30;39.60;;;;;;222913;1254;24295;-48
2024/01/19 05:29:13;;;;;;;1.90;1.80;;;19.30;39.50;;;;;;222739;1264;22780;-46
2024/01/19 05:34:18;;;;;;;1.90;1.80;;;19.20;39.50;;;;;;223024;1261;22650;-44
2024/01/19 05:39:25;;;;;;;1.80;1.70;;;19.20;39.80;;;;;;222978;1261;22575;-47
2024/01/19 05:44:30;;;;;;;2.70;2.20;;;19.20;39.40;;;;;;222382;1264;535313;-47
2024/01/19 05:49:46;;;;;;;2.00;1.90;;;19.10;39.10;;;;;;222911;1261;24212;-48
2024/01/19 05:54:53;;;;;;;2.40;2.10;;;19.00;39.60;;;;;;222351;1260;24249;-46
2024/01/19 06:00:01;;;;;;;2.40;2.20;;;18.90;39.70;;;;;;222391;1263;25369;-50
2024/01/19 06:05:16;;;;;;;3.90;2.40;;;18.90;39.80;;;;;;222465;1266;22517;-47
2024/01/19 06:10:29;;;;;;;2.10;2.00;;;18.90;39.80;;;;;;222707;1267;22647;-46
2024/01/19 06:15:35;;;;;;;2.00;1.80;;;19.30;39.10;;;;;;222568;1258;22524;-46
2024/01/19 06:20:41;;;;;;;1.90;1.80;;;20.00;38.20;;;;;;222694;1254;24053;-47
2024/01/19 06:25:46;;;;;;;2.00;1.80;;;20.40;37.50;;;;;;222372;1266;23000;-47
2024/01/19 06:30:51;;;;;;;1.90;1.80;;;20.60;37.40;;;;;;222465;1264;26183;-49
2024/01/19 06:35:56;;;;;;;2.10;1.90;;;20.50;37.40;;;;;;222555;1267;22713;-46
2024/01/19 06:41:03;;;;;;;1.80;1.60;;;20.40;37.50;;;;;;222578;1254;22622;-47
2024/01/19 06:46:08;;;;;;;3.40;1.70;;;20.30;37.80;;;;;;222609;1266;22652;-47
2024/01/19 06:51:17;;;;;;;1.70;1.60;;;20.10;38.00;;;;;;222427;1264;24192;-46
2024/01/19 06:56:21;;;;;;;2.90;2.00;;;19.90;38.40;;;;;;222725;1260;25505;-45
2024/01/19 07:01:26;;;;;;;1.80;1.70;;;19.80;38.70;;;;;;222345;1263;25397;-45
2024/01/19 07:06:33;;;;;;;3.10;2.00;;;19.70;38.80;;;;;;222462;1264;22737;-47
2024/01/19 07:11:38;;;;;;;1.70;1.60;;;19.50;39.40;;;;;;222428;1260;24427;-45
2024/01/19 07:16:43;;;;;;;1.60;1.50;;;19.40;39.10;;;;;;222500;1267;25464;-47
2024/01/19 07:21:48;;;;;;;3.20;1.80;;;19.40;39.00;;;;;;222158;1268;24193;-45
2024/01/19 07:26:59;;;;;;;2.30;2.10;;;19.40;39.10;;;;;;222440;1267;22524;-45
2024/01/19 07:32:07;;;;;;;1.80;1.70;;;19.30;39.50;;;;;;222913;1260;24273;-46
2024/01/19 07:37:12;;;;;;;2.10;2.00;;;19.30;39.60;;;;;;222471;1257;25342;-46
2024/01/19 07:42:17;;;;;;;3.00;2.30;;;19.40;39.00;;;;;;222452;1253;25400;-45
2024/01/19 07:47:22;;;;;;;2.60;2.40;;;19.30;39.10;;;;;;222767;1266;22594;-46
2024/01/19 07:52:26;;;;;;;3.60;2.60;;;19.20;39.10;;;;;;222626;1264;22518;-46
2024/01/19 07:57:31;;;;;;;2.80;2.40;;;19.10;39.10;;;;;;222358;1250;22540;-45
2024/01/19 08:02:36;;;;;;;4.50;2.50;;;19.00;39.20;;;;;;223766;1257;22599;-45
2024/01/19 08:07:42;;;;;;;2.30;2.10;;;19.00;39.60;;;;;;222931;1267;22886;-46
2024/01/19 08:12:46;;;;;;;2.60;2.40;;;19.00;39.30;;;;;;222877;1267;22530;-50
2024/01/19 08:17:51;;;;;;;2.40;2.20;;;18.90;39.70;;;;;;222520;1257;22522;-48
2024/01/19 08:22:59;;;;;;;2.70;2.50;;;18.90;39.40;;;;;;222391;1267;22524;-48
2024/01/19 08:28:14;;;;;;;3.10;2.30;;;19.30;39.30;;;;;;222638;1263;25381;-47
2024/01/19 08:33:21;;;;;;;2.60;2.40;;;20.00;38.60;;;;;;222335;1267;25503;-50
2024/01/19 08:38:26;;;;;;;2.60;2.40;;;20.40;37.30;;;;;;222425;1262;25665;-47
2024/01/19 08:43:31;;;;;;;2.80;2.50;;;20.50;37.20;;;;;;221996;1267;24330;-46
2024/01/19 08:48:40;;;;;;;3.20;2.80;;;20.40;37.30;;;;;;221966;1265;25405;-46
2024/01/19 08:53:45;;;;;;;2.50;2.20;;;20.30;37.60;;;;;;222502;1267;24264;-47
2024/01/19 08:58:59;;;;;;;3.90;2.80;;;20.10;37.80;;;;;;222616;1262;24367;-47
2024/01/19 09:04:24;;;;;;;3.60;2.70;;;19.90;38.10;;;;;;223607;1261;22646;-46
2024/01/19 09:09:31;;;;;;;3.10;2.50;;;19.90;38.20;;;;;;222974;1247;22525;-46
2024/01/19 09:14:36;;;;;;;3.70;2.90;;;19.70;38.60;;;;;;222036;1264;22615;-46
2024/01/19 09:19:41;;;;;;;2.80;2.50;;;19.60;38.80;;;;;;222373;1258;25298;-47
2024/01/19 09:24:46;;;;;;;3.70;2.90;;;19.40;39.10;;;;;;222523;1268;24192;-45
2024/01/19 09:29:51;;;;;;;2.30;2.10;;;19.40;38.90;;;;;;222857;1267;24185;-45
2024/01/19 09:34:56;;;;;;;3.30;2.50;;;19.40;38.90;;;;;;222293;1255;23260;-47
2024/01/19 09:40:04;;;;;;;2.50;2.30;;;19.40;38.90;;;;;;222596;1261;22579;-47
2024/01/19 09:45:17;;;;;;;3.10;2.60;;;19.30;39.40;;;;;;222744;1260;22531;-47
2024/01/19 09:50:25;;;;;;;2.70;2.30;;;19.20;39.30;;;;;;222979;1262;22520;-45
2024/01/19 09:55:34;;;;;;;2.80;2.60;;;19.30;38.80;;;;;;222755;1260;24234;-47
2024/01/19 10:00:50;;;;;;;2.70;2.50;;;19.10;39.20;;;;;;222522;1260;24189;-47
2024/01/19 10:05:55;;;;;;;2.30;2.10;;;19.00;39.40;;;;;;222794;1260;22517;-46
2024/01/19 10:11:05;;;;;;;2.70;2.50;;;18.90;39.80;;;;;;222538;1264;22599;-46
2024/01/19 10:16:09;;;;;;;2.60;2.40;;;18.80;40.30;;;;;;222671;1262;22510;-46
2024/01/19 10:21:13;;;;;;;3.50;2.50;;;18.90;40.00;;;;;;222511;1261;22521;-46
2024/01/19 10:26:19;;;;;;;2.50;2.30;;;18.90;40.30;;;;;;222287;1267;24079;-48
2024/01/19 10:31:26;;;;;;;3.20;2.80;;;18.90;39.80;;;;;;222577;1255;22612;-47
2024/01/19 10:36:40;;;;;;;3.10;2.30;;;19.00;39.90;;;;;;222278;1267;24224;-48
2024/01/19 10:41:45;;;;;;;2.40;2.10;;;19.10;39.70;;;;;;222396;1255;23428;-47
2024/01/19 10:46:50;;;;;;;2.90;2.30;;;19.10;39.60;;;;;;222714;1266;22530;-48
2024/01/19 10:51:56;;;;;;;3.10;2.60;;;19.30;39.40;;;;;;222683;1256;24397;-47
2024/01/19 10:57:08;;;;;;;3.70;2.50;;;19.10;39.50;;;;;;222413;1259;23811;-48
2024/01/19 11:02:14;;;;;;;3.10;2.80;;;19.20;39.60;;;;;;222763;1263;22646;-47
2024/01/19 11:07:19;;;;;;;3.70;2.60;;;19.10;39.70;;;;;;222589;1262;25234;-47
2024/01/19 11:12:25;;;;;;;3.20;2.80;;;19.10;39.90;;;;;;222540;1262;22574;-47
2024/01/19 11:17:30;;;;;;;2.40;2.20;;;19.10;39.70;;;;;;222592;1259;25259;-45
2024/01/19 11:22:35;;;;;;;2.70;2.00;;;19.10;40.10;;;;;;223052;1255;22640;-45
2024/01/19 11:27:53;;;;;;;2.40;2.20;;;19.10;39.90;;;;;;222617;1263;24209;-46
2024/01/19 11:33:15;;;;;;;3.00;2.40;;;19.20;39.80;;;;;;222148;1260;22667;-48
2024/01/19 11:38:38;;;;;;;4.00;2.70;;;19.30;39.80;;;;;;222245;1267;22532;-47
2024/01/19 11:43:46;;;;;;;2.00;1.90;;;19.30;39.80;;;;;;222460;1261;25285;-46
2024/01/19 11:49:00;;;;;;;2.70;2.50;;;19.30;39.50;;;;;;222606;1261;22520;-46
2024/01/19 11:54:05;;;;;;;2.50;2.20;;;19.40;39.40;;;;;;222380;1262;24199;-47
2024/01/19 11:59:10;;;;;;;2.90;2.30;;;19.30;39.60;;;;;;222307;1268;22601;-49
2024/01/19 12:04:17;;;;;;;3.00;2.40;;;19.40;39.80;;;;;;222397;1268;22523;-47
2024/01/19 12:09:23;;;;;;;3.50;2.50;;;19.40;40.00;;;;;;222180;1261;22528;-48
2024/01/19 12:14:28;;;;;;;3.00;2.50;;;19.40;39.80;;;;;;222138;1260;24246;-45
2024/01/19 12:19:33;;;;;;;2.70;2.00;;;19.30;39.60;;;;;;222614;1265;22683;-44
2024/01/19 12:24:47;;;;;;;4.50;2.90;;;19.30;39.60;;;;;;222440;1268;25244;-47
2024/01/19 12:29:52;;;;;;;2.20;2.00;;;19.10;40.10;;;;;;222298;1253;22724;-47
2024/01/19 12:34:57;;;;;;;2.40;2.00;;;19.10;40.10;;;;;;222181;1262;23788;-46
2024/01/19 12:40:24;;;;;;;2.10;1.90;;;19.10;40.20;;;;;;222841;1260;25395;-45
2024/01/19 12:45:29;;;;;;;2.80;2.40;;;19.00;40.30;;;;;;223020;1261;22730;-47
2024/01/19 12:50:33;;;;;;;2.30;2.10;;;19.00;40.40;;;;;;222755;1260;24365;-48
2024/01/19 12:55:38;;;;;;;2.70;2.50;;;19.00;40.40;;;;;;222601;1260;22569;-46
2024/01/19 13:00:43;;;;;;;3.20;2.30;;;19.00;40.40;;;;;;222836;1260;23132;-46
2024/01/19 13:05:48;;;;;;;2.20;1.80;;;19.00;40.50;;;;;;222892;1251;22506;-46
2024/01/19 13:11:07;;;;;;;2.10;1.80;;;18.90;40.40;;;;;;222698;1267;24399;-46
2024/01/19 13:16:14;;;;;;;3.80;2.30;;;18.90;40.40;;;;;;222857;1266;24435;-50
2024/01/19 13:21:19;;;;;;;2.40;2.20;;;18.90;40.40;;;;;;223007;1267;24190;-47
2024/01/19 13:26:25;;;;;;;2.20;2.00;;;18.90;40.50;;;;;;222508;1260;25668;-47
2024/01/19 13:31:29;;;;;;;2.00;1.80;;;18.80;40.50;;;;;;222361;1254;25447;-47
2024/01/19 13:36:34;;;;;;;2.70;2.10;;;18.80;40.60;;;;;;222510;1263;22520;-49
2024/01/19 13:41:38;;;;;;;2.50;2.20;;;18.80;40.50;;;;;;222147;1261;22586;-48
2024/01/19 13:46:44;;;;;;;3.00;2.50;;;18.80;41.00;;;;;;222504;1264;24239;-45
2024/01/19 13:51:49;;;;;;;2.30;2.10;;;18.70;40.60;;;;;;222484;1265;24177;-45
2024/01/19 13:56:54;;;;;;;2.30;2.10;;;18.70;40.70;;;;;;222399;1264;22533;-49
2024/01/19 14:01:59;;;;;;;3.20;2.10;;;18.70;40.70;;;;;;222462;1260;22962;-49
2024/01/19 14:07:10;;;;;;;2.30;1.80;;;18.70;40.70;;;;;;222427;1265;22522;-46
2024/01/19 14:12:15;;;;;;;2.20;2.00;;;18.70;40.60;;;;;;222910;1255;22569;-47
2024/01/19 14:17:20;;;;;;;4.00;2.60;;;19.40;40.00;;;;;;222728;1267;23890;-45
2024/01/19 14:22:25;;;;;;;3.20;2.30;;;20.00;38.50;;;;;;222357;1263;22523;-47
2024/01/19 14:27:30;;;;;;;2.40;2.20;;;20.30;38.30;;;;;;222296;1257;22539;-45
2024/01/19 14:32:36;;;;;;;2.90;2.10;;;20.40;38.40;;;;;;221610;1269;24363;-46
2024/01/19 14:37:41;;;;;;;3.00;2.10;;;20.30;38.00;;;;;;221266;1268;25468;-46
2024/01/19 14:42:48;;;;;;;2.90;1.90;;;20.20;38.50;;;;;;221075;1266;24347;-45
2024/01/19 14:48:05;;;;;;;5.10;2.40;;;20.00;39.10;;;;;;221558;1268;24180;-46
2024/01/19 14:53:14;;;;;;;5.00;2.20;;;19.70;38.80;;;;;;222480;1259;22530;-46
2024/01/19 14:58:19;;;;;;;4.30;2.40;;;19.50;39.80;;;;;;222510;1264;22609;-47
2024/01/19 15:03:26;;;;;;;2.30;2.10;;;19.40;39.50;;;;;;222578;1249;22533;-47
2024/01/19 15:08:31;;;;;;;3.00;1.80;;;19.30;40.00;;;;;;222558;1256;25236;-45
2024/01/19 15:13:36;;;;;;;2.10;1.90;;;19.30;39.70;;;;;;222374;1256;22552;-46
2024/01/19 15:18:41;;;;;;;3.20;2.10;;;19.20;39.80;;;;;;222431;1268;24307;-46
2024/01/19 15:23:46;;;;;;;5.20;2.80;;;19.10;39.90;;;;;;222495;1259;25431;-46
2024/01/19 15:28:50;;;;;;;2.10;1.80;;;19.00;39.90;;;;;;222543;1266;24315;-46
2024/01/19 15:33:55;;;;;;;1.70;1.60;;;18.90;40.00;;;;;;222601;1263;25288;-44
2024/01/19 15:39:06;;;;;;;2.60;2.00;;;18.90;40.10;;;;;;222672;1265;25398;-50
2024/01/19 15:44:14;;;;;;;2.80;2.20;;;18.90;40.10;;;;;;222251;1268;23224;-45
2024/01/19 15:49:19;;;;;;;1.90;1.60;;;18.80;40.50;;;;;;222483;1265;22657;-47
2024/01/19 15:54:24;;;;;;;1.90;1.50;;;18.80;40.30;;;;;;222377;1266;24215;-47
2024/01/19 15:59:29;;;;;;;2.10;1.90;;;18.80;40.20;;;;;;222163;1261;23312;-47
2024/01/19 16:04:34;;;;;;;2.70;2.20;;;18.80;40.10;;;;;;222635;1267;22760;-46
2024/01/19 16:09:44;;;;;;;2.50;1.80;;;18.80;39.90;;;;;;222226;1265;25223;-49
2024/01/19 16:14:54;;;;;;;4.10;2.50;;;19.00;39.70;;;;;;222075;1268;25352;-47
2024/01/19 16:19:59;;;;;;;1.90;1.70;;;19.70;39.00;;;;;;220511;1272;24196;-47
2024/01/19 16:25:06;;;;;;;1.60;1.40;;;20.20;38.10;;;;;;220478;1276;22540;-47
2024/01/19 16:30:14;;;;;;;2.30;1.90;;;20.30;37.70;;;;;;220570;1276;24430;-48
2024/01/19 16:35:19;;;;;;;4.30;2.30;;;20.40;37.70;;;;;;221029;1267;25288;-46
2024/01/19 16:40:33;;;;;;;2.50;1.70;;;20.30;37.90;;;;;;222436;1267;26278;-47
2024/01/19 16:45:39;;;;;;;1.60;1.50;;;20.10;38.10;;;;;;222426;1265;24193;-46
2024/01/19 16:50:46;;;;;;;2.30;2.10;;;20.00;38.30;;;;;;222490;1268;25508;-47
2024/01/19 16:55:51;;;;;;;2.10;1.70;;;19.90;38.50;;;;;;222453;1262;22606;-48
2024/01/19 17:01:05;;;;;;;2.30;1.90;;;19.60;39.00;;;;;;222829;1266;24144;-47
2024/01/19 17:06:14;;;;;;;2.90;1.80;;;19.50;39.10;;;;;;222840;1261;22693;-45
2024/01/19 17:11:18;;;;;;;2.10;1.60;;;19.50;39.20;;;;;;223043;1259;22524;-47
2024/01/19 17:16:22;;;;;;;3.10;2.00;;;19.40;39.90;;;;;;222528;1254;24054;-45
2024/01/19 17:21:32;;;;;;;1.80;1.70;;;19.30;39.40;;;;;;222845;1265;22521;-47
2024/01/19 17:26:41;;;;;;;1.50;1.40;;;19.20;39.40;;;;;;222144;1267;23345;-49
2024/01/19 17:31:46;;;;;;;1.50;1.40;;;19.10;39.60;;;;;;222742;1265;22516;-45
2024/01/19 17:36:51;;;;;;;1.80;1.60;;;18.90;39.80;;;;;;222814;1260;25336;-47
2024/01/19 17:42:06;;;;;;;2.60;2.00;;;18.90;39.90;;;;;;222461;1263;24173;-46
2024/01/19 17:47:11;;;;;;;3.70;2.00;;;18.80;39.90;;;;;;222439;1260;398742;-46
2024/01/19 17:52:18;;;;;;;1.90;1.70;;;18.90;39.90;;;;;;222610;1261;24806;-47
2024/01/19 17:57:29;;;;;;;1.70;1.40;;;18.90;39.90;;;;;;222905;1254;24205;-45
2024/01/19 18:02:34;;;;;;;3.50;2.00;;;18.90;39.90;;;;;;222685;1267;25285;-48
2024/01/19 18:07:39;;;;;;;1.60;1.50;;;18.80;40.00;;;;;;222703;1259;24225;-50
2024/01/19 18:12:44;;;;;;;1.90;1.60;;;18.80;39.80;;;;;;222787;1263;22491;-47
2024/01/19 18:17:49;;;;;;;2.00;1.60;;;18.70;40.40;;;;;;222662;1258;22534;-45
2024/01/19 18:22:54;;;;;;;1.60;1.50;;;19.20;39.30;;;;;;222488;1265;22542;-46
2024/01/19 18:27:59;;;;;;;1.60;1.50;;;19.80;38.70;;;;;;222678;1253;22595;-47
2024/01/19 18:33:06;;;;;;;1.90;1.70;;;20.30;37.70;;;;;;222515;1258;24374;-48
2024/01/19 18:38:11;;;;;;;1.50;1.40;;;20.40;37.50;;;;;;222723;1267;22536;-50
2024/01/19 18:43:16;;;;;;;1.60;1.40;;;20.30;37.60;;;;;;222505;1253;23919;-46
2024/01/19 18:48:23;;;;;;;3.10;1.70;;;20.20;37.80;;;;;;222583;1253;22599;-46
2024/01/19 18:53:30;;;;;;;3.00;1.80;;;20.00;38.40;;;;;;222679;1265;22550;-45
2024/01/19 18:58:38;;;;;;;1.50;1.30;;;20.00;38.30;;;;;;222690;1265;24184;-46
2024/01/19 19:03:43;;;;;;;2.20;1.40;;;19.70;38.60;;;;;;222573;1267;24317;-46
2024/01/19 19:08:51;;;;;;;1.80;1.40;;;19.50;38.90;;;;;;222726;1266;25264;-46
2024/01/19 19:13:56;;;;;;;1.50;1.40;;;19.50;39.30;;;;;;222702;1263;24226;-45
2024/01/19 19:19:02;;;;;;;1.70;1.60;;;19.40;39.20;;;;;;222405;1256;24238;-48
2024/01/19 19:24:07;;;;;;;1.50;1.40;;;19.40;39.10;;;;;;222341;1257;22521;-45
2024/01/19 19:29:13;;;;;;;2.20;1.70;;;19.30;39.30;;;;;;222717;1265;22530;-49
2024/01/19 19:34:19;;;;;;;1.50;1.40;;;19.20;39.40;;;;;;222650;1259;22684;-48
2024/01/19 19:39:26;;;;;;;1.60;1.50;;;19.10;39.90;;;;;;222798;1264;23011;-45
2024/01/19 19:44:33;;;;;;;2.60;1.50;;;19.00;39.80;;;;;;222403;1266;23949;-45
2024/01/19 19:49:43;;;;;;;1.70;1.40;;;18.90;39.80;;;;;;222990;1263;24174;-46
2024/01/19 19:54:52;;;;;;;1.70;1.60;;;18.90;39.80;;;;;;222779;1266;24195;-47
2024/01/19 19:59:59;;;;;;;2.20;2.00;;;18.90;39.90;;;;;;222570;1266;25532;-47
2024/01/19 20:05:13;;;;;;;2.50;1.80;;;18.90;39.80;;;;;;222780;1265;22559;-49
2024/01/19 20:10:22;;;;;;;2.80;1.60;;;18.80;39.80;;;;;;222516;1265;22763;-46
2024/01/19 20:15:27;;;;;;;3.50;1.40;;;18.80;39.80;;;;;;222273;1246;22535;-48
2024/01/19 20:20:39;;;;;;;2.10;1.60;;;18.80;39.70;;;;;;222320;1263;22646;-46
2024/01/19 20:25:44;;;;;;;2.00;1.50;;;18.80;39.70;;;;;;222306;1265;22634;-49
2024/01/19 20:30:49;;;;;;;1.90;1.70;;;19.30;39.40;;;;;;222639;1264;22555;-46
2024/01/19 20:36:03;;;;;;;1.50;1.40;;;19.90;38.10;;;;;;222527;1247;24200;-48
2024/01/19 20:41:12;;;;;;;2.10;1.70;;;20.30;37.60;;;;;;222095;1266;22522;-48
2024/01/19 20:46:20;;;;;;;1.70;1.60;;;20.30;37.50;;;;;;222497;1246;22537;-47
2024/01/19 20:51:25;;;;;;;2.30;1.70;;;20.30;37.60;;;;;;222247;1256;24324;-46
2024/01/19 20:56:33;;;;;;;1.90;1.70;;;20.20;37.70;;;;;;222524;1260;22717;-46
2024/01/19 21:01:37;;;;;;;2.20;2.00;;;20.10;38.30;;;;;;222255;1267;22535;-47
2024/01/19 21:06:42;;;;;;;1.70;1.60;;;19.90;38.70;;;;;;222600;1266;24228;-45
2024/01/19 21:11:47;;;;;;;2.20;1.70;;;19.60;38.60;;;;;;222343;1260;22725;-47
2024/01/19 21:17:02;;;;;;;2.10;1.40;;;19.50;39.30;;;;;;222785;1263;24322;-47
2024/01/19 21:22:06;;;;;;;3.60;2.10;;;19.40;39.10;;;;;;222698;1266;24212;-46
2024/01/19 21:27:15;;;;;;;2.10;1.50;;;19.40;39.10;;;;;;222525;1265;24216;-47
2024/01/19 21:32:22;;;;;;;2.30;1.80;;;19.40;39.10;;;;;;222495;1267;22514;-46
2024/01/19 21:37:32;;;;;;;2.10;1.70;;;19.30;39.20;;;;;;224344;1268;22643;-47
2024/01/19 21:42:43;;;;;;;2.30;1.80;;;19.20;39.50;;;;;;222415;1266;25493;-45
2024/01/19 21:47:54;;;;;;;2.00;1.70;;;19.20;39.30;;;;;;222782;1260;22689;-45
2024/01/19 21:58:47;;;;;;;3.20;1.90;;;19.10;39.50;;;;;;222750;1267;24350;-48
2024/01/19 22:03:55;;;;;;;2.30;1.90;;;19.80;38.30;;;;;;222226;1264;22530;-47
2024/01/19 22:09:00;;;;;;;2.60;2.00;;;20.40;37.80;;;;;;222296;1261;22527;-45
2024/01/19 22:14:07;;;;;;;1.80;1.70;;;20.60;37.50;;;;;;222609;1257;25277;-47
2024/01/19 22:19:13;;;;;;;1.50;1.40;;;20.70;37.00;;;;;;222327;1267;22657;-46
2024/01/19 22:24:18;;;;;;;3.20;1.80;;;20.60;37.20;;;;;;222576;1268;22527;-48
2024/01/19 22:29:22;;;;;;;1.70;1.60;;;20.50;37.80;;;;;;222597;1262;23924;-47
2024/01/19 22:34:30;;;;;;;1.50;1.40;;;20.40;37.60;;;;;;222339;1266;24193;-48
2024/01/19 22:39:37;;;;;;;2.20;1.70;;;20.20;37.80;;;;;;222649;1268;24193;-46
2024/01/19 22:44:45;;;;;;;3.70;2.20;;;20.00;38.30;;;;;;222261;1267;23818;-46
2024/01/19 22:49:53;;;;;;;2.70;2.00;;;19.80;38.60;;;;;;222164;1260;22703;-46
2024/01/19 22:54:57;;;;;;;5.40;2.70;;;19.70;38.80;;;;;;222428;1266;24233;-45
2024/01/19 23:00:04;;;;;;;2.30;1.70;;;19.60;38.80;;;;;;222624;1265;24287;-50
2024/01/19 23:05:10;;;;;;;2.80;1.90;;;19.50;38.90;;;;;;222907;1266;22523;-47
2024/01/19 23:10:26;;;;;;;2.40;2.10;;;19.50;38.90;;;;;;222450;1262;22524;-45
2024/01/19 23:15:34;;;;;;;1.70;1.50;;;19.50;38.90;;;;;;222537;1265;22635;-46
2024/01/19 23:20:42;;;;;;;2.20;1.70;;;19.40;39.00;;;;;;222596;1268;23837;-48
2024/01/19 23:25:50;;;;;;;1.60;1.50;;;19.40;39.10;;;;;;222219;1265;22731;-47
2024/01/19 23:30:56;;;;;;;1.90;1.70;;;19.20;39.20;;;;;;222650;1267;24270;-48
2024/01/19 23:36:07;;;;;;;4.30;1.50;;;19.20;39.20;;;;;;222718;1267;23137;-47
2024/01/19 23:41:11;;;;;;;2.10;1.90;;;19.10;39.50;;;;;;222707;1262;24413;-45
2024/01/19 23:46:46;;;;;;;1.60;1.40;;;19.40;39.00;;;;;;222475;1267;24203;-46
2024/01/19 23:51:51;;;;;;;3.10;2.10;;;20.10;38.00;;;;;;221419;1275;25413;-47
2024/01/19 23:56:57;;;;;;;2.50;2.00;;;20.60;37.30;;;;;;220946;1273;24340;-46
